Time;durP1;ratioP1;P1;durP2;ratioP2;P2;SDS_P1;SDS_P2;PMS_P1;PMS_P2;Temp;Humidity;BMP_temperature;BMP_pressure;BME280_temperature;BME280_humidity;BME280_pressure;Samples;Min_cycle;Max_cycle;Signal;HPM_P1;HPM_P2
2022/04/19 00:00:06;;;;;;;3.15;1.73;;;19.90;38.30;19.00;101203.00;;;;5036660;28;20049;-64
2022/04/19 00:02:52;;;;;;;2.10;1.48;;;19.90;38.30;19.00;101202.00;;;;5030418;28;20033;-64
2022/04/19 00:05:38;;;;;;;2.28;1.83;;;19.80;38.20;18.90;101196.00;;;;5041148;28;20044;-64
2022/04/19 00:08:24;;;;;;;2.47;1.23;;;19.80;38.20;18.90;101197.00;;;;5040412;28;20404;-64
2022/04/19 00:11:10;;;;;;;2.58;1.60;;;19.80;38.20;18.90;101200.00;;;;5048360;28;20048;-64
2022/04/19 00:13:56;;;;;;;2.67;1.60;;;19.80;38.30;18.90;101195.00;;;;5024569;28;20506;-64
2022/04/19 00:16:42;;;;;;;2.22;1.50;;;19.80;38.20;18.90;101192.00;;;;5041880;28;20076;-64
2022/04/19 00:19:28;;;;;;;2.67;1.45;;;19.80;38.20;18.90;101196.00;;;;5046622;28;20094;-64
2022/04/19 00:22:14;;;;;;;1.50;1.40;;;19.80;38.30;18.90;101190.00;;;;5040031;28;20051;-64
2022/04/19 00:25:00;;;;;;;1.73;1.30;;;19.80;38.30;18.90;101192.00;;;;5041676;28;20069;-65
2022/04/19 00:27:46;;;;;;;1.60;1.50;;;19.80;38.30;18.90;101186.00;;;;5027415;28;20448;-64
2022/04/19 00:30:32;;;;;;;1.98;1.35;;;19.80;38.40;18.90;101182.00;;;;5023559;28;20144;-64
2022/04/19 00:33:18;;;;;;;3.33;1.70;;;19.80;38.40;18.80;101176.00;;;;5036994;28;20133;-64
2022/04/19 00:36:05;;;;;;;1.52;1.25;;;19.70;39.00;18.80;101177.00;;;;5036252;28;20053;-64
2022/04/19 00:38:51;;;;;;;3.05;2.10;;;19.80;38.50;18.80;101176.00;;;;5007616;28;20057;-64
2022/04/19 00:41:37;;;;;;;1.85;1.58;;;19.70;38.40;18.80;101187.00;;;;5036200;28;20045;-64
2022/04/19 00:44:23;;;;;;;2.35;1.70;;;19.70;38.40;18.80;101175.00;;;;5037639;28;20044;-64
2022/04/19 00:47:09;;;;;;;2.67;1.45;;;19.70;38.40;18.80;101164.00;;;;5036859;28;20049;-64
2022/04/19 00:49:55;;;;;;;2.58;1.42;;;19.70;38.40;18.80;101166.00;;;;5021731;28;20045;-64
2022/04/19 00:52:43;;;;;;;2.17;1.65;;;19.70;38.40;18.80;101167.00;;;;5018170;28;20049;-64
2022/04/19 00:55:31;;;;;;;2.20;1.75;;;19.70;38.40;18.80;101168.00;;;;5024962;28;20045;-64
2022/04/19 00:58:17;;;;;;;1.67;1.30;;;19.60;38.40;18.80;101174.00;;;;5001330;28;20044;-64
2022/04/19 01:01:03;;;;;;;2.55;1.73;;;19.70;38.40;18.80;101168.00;;;;5021660;28;20037;-64
2022/04/19 01:03:49;;;;;;;3.42;1.85;;;19.70;38.40;18.80;101164.00;;;;5031240;28;20040;-64
2022/04/19 01:06:35;;;;;;;1.65;1.30;;;19.70;38.40;18.70;101164.00;;;;5052368;28;20040;-64
2022/04/19 01:09:22;;;;;;;2.10;1.50;;;19.70;38.40;18.70;101164.00;;;;5043816;28;20040;-64
2022/04/19 01:15:13;;;;;;;2.33;1.50;;;19.60;38.50;18.70;101170.00;;;;5020252;28;20037;-64
2022/04/19 01:18:02;;;;;;;1.77;1.50;;;19.60;38.50;18.70;101171.00;;;;5038744;28;20041;-64
2022/04/19 01:20:48;;;;;;;3.40;1.92;;;19.60;38.40;18.70;101156.00;;;;5014894;28;20065;-64
2022/04/19 01:23:35;;;;;;;2.00;1.55;;;19.60;38.40;18.70;101155.00;;;;5036838;28;20033;-64
2022/04/19 01:26:21;;;;;;;2.17;1.73;;;19.60;38.40;18.70;101157.00;;;;5010464;28;20036;-64
2022/04/19 01:29:09;;;;;;;2.47;1.55;;;19.60;38.40;18.70;101144.00;;;;5034696;28;20049;-64
2022/04/19 01:31:55;;;;;;;;;;;19.40;38.40;18.60;101154.00;;;;5036451;28;20045;-64
2022/04/19 01:34:41;;;;;;;1.77;1.33;;;19.50;38.40;18.60;101155.00;;;;5038457;28;19921;-64
2022/04/19 01:37:27;;;;;;;1.90;1.70;;;19.50;38.40;18.60;101152.00;;;;5034121;28;20045;-64
2022/04/19 01:40:19;;;;;;;2.10;1.45;;;19.50;38.40;18.60;101148.00;;;;5038074;28;20527;-64
2022/04/19 01:43:05;;;;;;;2.42;1.98;;;19.50;38.30;18.60;101142.00;;;;5039428;28;20048;-64
2022/04/19 01:45:51;;;;;;;2.40;1.85;;;19.50;38.40;18.60;101134.00;;;;5042186;28;20040;-64
2022/04/19 01:48:37;;;;;;;2.25;1.70;;;19.50;38.50;18.60;101127.00;;;;5045443;28;20406;-64
2022/04/19 01:51:24;;;;;;;2.95;1.92;;;19.50;38.50;18.60;101140.00;;;;5038810;28;20098;-64
2022/04/19 01:54:11;;;;;;;2.20;1.60;;;19.60;38.60;18.60;101143.00;;;;5039144;28;20041;-64
2022/04/19 01:56:57;;;;;;;2.00;1.60;;;19.50;38.60;18.60;101137.00;;;;5037641;28;20582;-64
2022/04/19 01:59:43;;;;;;;2.10;1.70;;;19.40;38.50;18.60;101139.00;;;;5044167;28;20045;-64
2022/04/19 02:02:29;;;;;;;2.53;1.25;;;19.50;38.60;18.60;101129.00;;;;5032426;28;20343;-64
2022/04/19 02:05:16;;;;;;;2.67;1.80;;;19.50;38.50;18.60;101137.00;;;;5048024;28;20033;-64
2022/04/19 02:08:02;;;;;;;2.22;1.60;;;19.50;38.60;18.60;101138.00;;;;5006903;28;20038;-64
2022/04/19 02:10:48;;;;;;;2.72;1.80;;;19.30;38.50;18.60;101137.00;;;;5045362;28;20041;-64
2022/04/19 02:13:34;;;;;;;2.90;2.28;;;19.40;38.50;18.60;101142.00;;;;5028997;28;20446;-64
2022/04/19 02:16:21;;;;;;;2.08;1.73;;;19.40;38.50;18.60;101141.00;;;;5032103;28;20040;-64
2022/04/19 02:19:07;;;;;;;2.45;1.83;;;19.40;38.50;18.60;101140.00;;;;5041590;28;20045;-64
2022/04/19 02:21:53;;;;;;;2.85;1.60;;;19.40;38.50;18.60;101138.00;;;;5036298;28;20053;-64
2022/04/19 02:24:39;;;;;;;2.28;1.63;;;19.50;38.60;18.60;101141.00;;;;5041580;28;20209;-64
2022/04/19 02:27:30;;;;;;;2.13;1.60;;;19.40;38.50;18.50;101138.00;;;;5040692;28;20088;-64
2022/04/19 02:30:17;;;;;;;2.00;1.73;;;19.40;38.70;18.50;101138.00;;;;5045534;28;20041;-64
2022/04/19 02:33:03;;;;;;;2.45;1.65;;;19.40;38.60;18.50;101144.00;;;;5030790;28;20180;-64
2022/04/19 02:35:49;;;;;;;2.78;1.88;;;19.40;38.60;18.50;101135.00;;;;5027602;28;20202;-64
2022/04/19 02:38:36;;;;;;;2.22;1.88;;;19.40;38.60;18.50;101141.00;;;;5036482;28;20053;-64
2022/04/19 02:41:22;;;;;;;3.55;1.75;;;19.40;38.60;18.50;101134.00;;;;5044527;28;20040;-64
2022/04/19 02:44:08;;;;;;;2.08;1.83;;;19.40;38.60;18.50;101138.00;;;;5040912;28;20044;-64
2022/04/19 02:46:54;;;;;;;2.38;1.73;;;19.40;38.70;18.50;101126.00;;;;5037005;28;20120;-64
2022/04/19 02:49:40;;;;;;;2.10;1.67;;;19.40;38.70;18.50;101136.00;;;;5044179;28;20485;-64
2022/04/19 02:52:26;;;;;;;2.90;2.03;;;19.40;38.70;18.50;101139.00;;;;5039678;28;20116;-64
2022/04/19 02:55:12;;;;;;;2.90;1.95;;;19.40;38.70;18.50;101128.00;;;;5043564;28;20287;-64
2022/04/19 02:57:58;;;;;;;2.67;1.92;;;19.30;38.60;18.50;101137.00;;;;5038633;28;20037;-64
2022/04/19 03:00:44;;;;;;;2.72;1.48;;;19.40;38.70;18.50;101138.00;;;;5047047;28;20430;-64
2022/04/19 03:03:30;;;;;;;3.80;1.98;;;19.30;39.40;18.50;101133.00;;;;5041051;28;20123;-64
2022/04/19 03:06:16;;;;;;;2.13;1.70;;;19.30;38.70;18.50;101131.00;;;;5039507;28;20037;-64
2022/04/19 03:09:03;;;;;;;2.25;1.92;;;19.30;38.70;18.50;101136.00;;;;5038045;28;20049;-64
2022/04/19 03:11:49;;;;;;;2.13;1.88;;;19.40;38.70;18.50;101131.00;;;;5037190;28;20044;-64
2022/04/19 03:14:35;;;;;;;2.38;1.90;;;19.30;38.70;18.40;101127.00;;;;5023593;28;20045;-64
2022/04/19 03:17:21;;;;;;;2.97;2.03;;;19.40;38.80;18.40;101125.00;;;;5036887;28;20504;-64
2022/04/19 03:20:08;;;;;;;2.42;1.98;;;19.30;38.70;18.40;101128.00;;;;5039851;28;20057;-64
2022/04/19 03:29:03;;;;;;;2.47;1.92;;;19.20;38.70;18.40;101128.00;;;;5039735;28;20105;-64
2022/04/19 03:31:49;;;;;;;4.10;2.22;;;19.30;38.80;18.40;101134.00;;;;5039208;28;20040;-64
2022/04/19 03:34:35;;;;;;;2.70;2.03;;;19.20;38.80;18.40;101125.00;;;;5039501;28;20049;-64
2022/04/19 03:37:22;;;;;;;2.88;2.10;;;19.20;38.80;18.40;101123.00;;;;5039264;28;20040;-64
2022/04/19 03:40:09;;;;;;;2.35;2.05;;;19.20;38.80;18.40;101123.00;;;;5041106;28;20052;-64
2022/04/19 03:42:55;;;;;;;2.88;1.90;;;19.20;38.80;18.40;101126.00;;;;5041804;28;20072;-64
2022/04/19 03:45:41;;;;;;;2.38;2.03;;;19.20;38.80;18.40;101122.00;;;;5042876;28;20041;-64
2022/04/19 03:48:28;;;;;;;2.53;2.03;;;19.20;38.80;18.30;101122.00;;;;5041249;28;20040;-64
2022/04/19 03:51:14;;;;;;;2.22;1.77;;;19.20;38.80;18.30;101127.00;;;;5042329;28;20073;-64
2022/04/19 03:54:00;;;;;;;3.22;2.35;;;19.20;38.80;18.30;101124.00;;;;5043577;28;20037;-64
2022/04/19 03:56:46;;;;;;;3.97;2.17;;;19.20;38.80;18.30;101131.00;;;;5041954;28;20399;-64
2022/04/19 03:59:32;;;;;;;3.78;2.30;;;19.10;38.80;18.30;101123.00;;;;5039727;28;20082;-64
2022/04/19 04:02:18;;;;;;;2.40;2.20;;;19.20;38.80;18.30;101129.00;;;;5038185;28;20106;-64
2022/04/19 04:05:05;;;;;;;2.38;2.00;;;19.10;38.80;18.30;101124.00;;;;5039664;28;20056;-64
2022/04/19 04:07:51;;;;;;;3.58;2.38;;;19.10;39.50;18.30;101137.00;;;;5041161;28;20742;-64
2022/04/19 04:10:37;;;;;;;2.90;2.60;;;19.20;38.80;18.30;101135.00;;;;5042706;28;20037;-64
2022/04/19 04:13:23;;;;;;;4.68;2.90;;;19.20;38.90;18.30;101140.00;;;;5026569;28;20060;-64
2022/04/19 04:16:10;;;;;;;3.88;2.45;;;19.10;38.80;18.30;101131.00;;;;5035443;28;20049;-64
2022/04/19 04:18:56;;;;;;;2.83;2.20;;;19.10;38.80;18.30;101137.00;;;;5039456;28;20045;-64
2022/04/19 04:21:42;;;;;;;2.85;2.42;;;19.20;38.80;18.30;101148.00;;;;5043995;28;20037;-64
2022/04/19 04:24:28;;;;;;;2.78;2.35;;;19.10;38.80;18.30;101134.00;;;;5046496;28;20044;-64
2022/04/19 04:27:15;;;;;;;3.20;2.38;;;19.10;38.80;18.30;101135.00;;;;5046869;28;20571;-64
2022/04/19 04:30:01;;;;;;;2.72;2.20;;;19.10;38.80;18.30;101142.00;;;;5041396;28;20136;-64
2022/04/19 04:32:47;;;;;;;3.33;2.33;;;19.10;38.80;18.30;101147.00;;;;5031535;28;20045;-64
2022/04/19 04:35:33;;;;;;;3.63;2.47;;;19.10;38.80;18.30;101142.00;;;;5047457;28;20287;-64
2022/04/19 04:38:19;;;;;;;3.22;2.40;;;19.00;38.80;18.30;101142.00;;;;5037916;28;20517;-64
2022/04/19 04:41:05;;;;;;;3.45;2.50;;;19.10;38.90;18.20;101144.00;;;;5054395;28;20102;-64
2022/04/19 04:43:51;;;;;;;3.45;2.47;;;19.10;38.90;18.20;101151.00;;;;5043399;28;20522;-65
2022/04/19 04:49:41;;;;;;;3.92;2.80;;;19.10;38.90;18.20;101141.00;;;;5048016;28;20369;-64
2022/04/19 04:52:27;;;;;;;4.35;2.58;;;19.10;38.90;18.20;101142.00;;;;5025472;28;20037;-64
2022/04/19 04:55:13;;;;;;;4.13;2.97;;;19.10;39.00;18.20;101146.00;;;;5046582;28;20043;-64
2022/04/19 04:58:01;;;;;;;4.28;2.72;;;19.10;39.00;18.20;101142.00;;;;5048745;28;20083;-64
2022/04/19 05:00:47;;;;;;;3.80;2.42;;;19.10;39.00;18.20;101139.00;;;;5042584;28;20041;-64
2022/04/19 05:03:33;;;;;;;2.90;2.60;;;19.00;38.90;18.20;101141.00;;;;5042776;28;20410;-64
2022/04/19 05:06:19;;;;;;;3.83;2.50;;;19.00;39.00;18.20;101145.00;;;;5023320;28;20068;-64
2022/04/19 05:09:05;;;;;;;4.38;2.78;;;19.00;38.90;18.20;101139.00;;;;5040410;28;20051;-64
2022/04/19 05:11:52;;;;;;;3.00;2.67;;;19.10;39.00;18.20;101133.00;;;;5041801;28;20045;-64
2022/04/19 05:14:38;;;;;;;3.60;2.60;;;19.00;38.90;18.20;101139.00;;;;5044766;28;20073;-64
2022/04/19 05:17:24;;;;;;;3.65;2.60;;;19.00;38.90;18.20;101143.00;;;;5041762;28;20461;-64
2022/04/19 05:20:10;;;;;;;3.65;2.97;;;19.10;39.00;18.20;101143.00;;;;5039968;28;20055;-64
2022/04/19 05:22:57;;;;;;;3.00;2.45;;;19.00;39.00;18.20;101141.00;;;;5037002;28;20421;-64
2022/04/19 05:25:43;;;;;;;3.35;2.67;;;19.00;38.90;18.20;101153.00;;;;5038832;28;20095;-64
2022/04/19 05:28:29;;;;;;;4.10;2.42;;;19.10;39.00;18.20;101153.00;;;;5036155;28;20478;-64
2022/04/19 05:31:15;;;;;;;3.70;2.63;;;19.00;39.00;18.20;101150.00;;;;5043160;28;20148;-64
2022/04/19 05:34:01;;;;;;;5.15;2.97;;;19.00;39.00;18.20;101149.00;;;;5041191;28;20048;-64
2022/04/19 05:36:47;;;;;;;3.17;2.70;;;19.00;39.00;18.20;101152.00;;;;5043531;28;20474;-64
2022/04/19 05:39:33;;;;;;;3.20;2.78;;;19.00;39.00;18.20;101147.00;;;;5034431;28;20557;-64
2022/04/19 05:42:19;;;;;;;3.03;2.72;;;19.00;39.00;18.20;101157.00;;;;5036250;28;20041;-64
2022/04/19 05:45:06;;;;;;;3.42;2.83;;;19.00;39.00;18.20;101157.00;;;;5042382;28;20107;-64
2022/04/19 05:47:52;;;;;;;3.20;2.60;;;19.00;39.00;18.20;101154.00;;;;5036606;28;20047;-64
2022/04/19 05:50:38;;;;;;;3.78;2.55;;;19.10;39.10;18.20;101158.00;;;;5034386;28;20056;-64
2022/04/19 05:53:24;;;;;;;3.50;2.60;;;19.00;39.00;18.20;101158.00;;;;5037778;28;20044;-64
2022/04/19 05:56:10;;;;;;;3.75;3.00;;;18.90;39.10;18.20;101165.00;;;;5037830;28;20425;-64
2022/04/19 05:58:56;;;;;;;3.08;2.63;;;19.00;39.10;18.20;101169.00;;;;5029483;28;20045;-64
2022/04/19 06:04:53;;;;;;;3.55;2.42;;;19.10;39.20;18.20;101171.00;;;;5040085;28;20048;-64
2022/04/19 06:07:46;;;;;;;4.47;3.17;;;19.00;39.10;18.20;101166.00;;;;5033546;28;20050;-64
2022/04/19 06:10:32;;;;;;;3.22;2.70;;;19.00;39.30;18.20;101169.00;;;;5024693;28;20047;-64
2022/04/19 06:13:18;;;;;;;4.30;2.60;;;19.10;39.30;18.20;101168.00;;;;5035636;28;20740;-64
2022/04/19 06:16:05;;;;;;;3.38;2.65;;;19.00;39.30;18.20;101170.00;;;;5039276;28;20061;-64
2022/04/19 06:18:51;;;;;;;4.78;3.05;;;19.00;39.30;18.20;101169.00;;;;5043340;28;20044;-64
2022/04/19 06:21:37;;;;;;;2.95;2.58;;;19.10;39.40;18.20;101173.00;;;;5036158;28;20048;-64
2022/04/19 06:24:24;;;;;;;3.53;2.80;;;19.10;39.40;18.20;101174.00;;;;5039184;28;20047;-64
2022/04/19 06:27:13;;;;;;;3.53;2.80;;;19.10;39.40;18.20;101167.00;;;;5018170;28;20403;-64
2022/04/19 06:29:59;;;;;;;4.15;2.70;;;19.10;39.40;18.20;101162.00;;;;5036790;28;20041;-64
2022/04/19 06:32:45;;;;;;;4.78;2.80;;;19.10;39.40;18.20;101164.00;;;;5038611;28;20045;-64
2022/04/19 06:35:31;;;;;;;4.05;2.90;;;19.10;39.40;18.20;101155.00;;;;5031675;28;20080;-64
2022/04/19 06:38:17;;;;;;;4.13;2.92;;;19.10;39.50;18.30;101162.00;;;;5044420;28;20407;-64
2022/04/19 06:41:03;;;;;;;3.78;2.58;;;19.10;39.40;18.30;101165.00;;;;5041631;28;20264;-64
2022/04/19 06:43:49;;;;;;;3.75;2.88;;;19.20;39.50;18.30;101163.00;;;;5026392;28;20494;-64
2022/04/19 06:46:36;;;;;;;3.72;2.60;;;19.20;39.50;18.30;101161.00;;;;5040202;28;20561;-64
2022/04/19 06:49:22;;;;;;;6.07;3.10;;;19.20;39.50;18.30;101165.00;;;;5029011;28;20045;-64
2022/04/19 06:52:08;;;;;;;6.13;3.10;;;19.20;39.60;18.30;101165.00;;;;5040335;28;20041;-64
2022/04/19 06:54:54;;;;;;;4.05;2.72;;;19.20;39.60;18.30;101162.00;;;;5045524;28;20041;-64
2022/04/19 06:57:41;;;;;;;3.85;2.95;;;19.30;39.70;18.30;101168.00;;;;5034400;28;20047;-64
2022/04/19 07:00:27;;;;;;;4.43;2.80;;;19.20;39.60;18.30;101165.00;;;;5043390;28;20115;-64
2022/04/19 07:03:13;;;;;;;3.03;2.55;;;19.20;39.60;18.30;101163.00;;;;5037833;28;20061;-64
2022/04/19 07:06:00;;;;;;;4.38;2.90;;;19.30;39.70;18.40;101174.00;;;;5045605;28;20040;-64
2022/04/19 07:08:46;;;;;;;3.17;2.80;;;19.30;39.70;18.40;101174.00;;;;5050916;28;20049;-64
2022/04/19 07:11:32;;;;;;;4.63;2.95;;;19.30;39.70;18.40;101169.00;;;;5028290;28;20206;-64
2022/04/19 07:14:18;;;;;;;3.28;2.72;;;19.30;39.70;18.40;101173.00;;;;5035854;28;20033;-64
2022/04/19 07:17:04;;;;;;;3.30;2.58;;;19.30;39.70;18.40;101175.00;;;;5049757;28;20296;-64
2022/04/19 07:29:11;;;;;;;4.07;2.60;;;19.40;39.70;18.40;101176.00;;;;5043672;28;20455;-64
2022/04/19 07:31:57;;;;;;;3.80;2.65;;;19.40;39.80;18.40;101175.00;;;;5025733;28;20045;-64
2022/04/19 07:34:43;;;;;;;4.15;2.83;;;19.40;39.80;18.40;101176.00;;;;5036504;28;20052;-64
2022/04/19 07:37:30;;;;;;;4.03;2.80;;;19.40;39.70;18.40;101174.00;;;;5036478;28;20502;-63
2022/04/19 07:40:16;;;;;;;4.30;2.90;;;19.40;39.70;18.40;101180.00;;;;5037411;28;20045;-64
2022/04/19 07:43:02;;;;;;;5.82;3.58;;;19.40;39.70;18.40;101180.00;;;;5042764;28;20036;-64
2022/04/19 07:45:48;;;;;;;3.35;2.60;;;19.40;39.70;18.50;101180.00;;;;5041572;28;20047;-64
2022/04/19 07:48:34;;;;;;;4.97;2.85;;;19.50;39.70;18.50;101188.00;;;;5042566;28;20046;-64
2022/04/19 07:51:20;;;;;;;3.78;2.50;;;19.50;39.70;18.50;101179.00;;;;5037234;28;20037;-64
2022/04/19 07:54:06;;;;;;;2.90;2.20;;;19.40;39.70;18.50;101187.00;;;;5022189;28;20048;-64
2022/04/19 07:56:52;;;;;;;2.85;2.40;;;19.50;39.70;18.50;101194.00;;;;5040822;28;20079;-64
2022/04/19 07:59:38;;;;;;;5.45;2.70;;;19.50;39.70;18.50;101195.00;;;;5038451;28;20491;-64
2022/04/19 08:02:24;;;;;;;3.80;2.70;;;19.50;39.70;18.50;101193.00;;;;5038664;28;20052;-64
2022/04/19 08:05:10;;;;;;;3.88;3.00;;;19.50;39.70;18.50;101197.00;;;;5049183;28;20117;-64
2022/04/19 08:07:57;;;;;;;3.40;2.20;;;19.50;40.40;18.50;101197.00;;;;5041646;28;20071;-64
2022/04/19 08:10:44;;;;;;;2.80;2.40;;;19.60;39.80;18.50;101200.00;;;;5039022;28;20250;-64
2022/04/19 08:13:30;;;;;;;3.33;2.53;;;19.50;39.70;18.50;101204.00;;;;5014206;28;20085;-64
2022/04/19 08:16:16;;;;;;;4.20;2.40;;;19.50;39.70;18.50;101201.00;;;;5026018;28;20039;-64
2022/04/19 08:19:02;;;;;;;4.00;2.60;;;19.50;39.70;18.50;101202.00;;;;5034324;28;20049;-64
2022/04/19 08:21:48;;;;;;;3.22;2.53;;;19.60;39.80;18.50;101213.00;;;;5035435;28;20044;-64
2022/04/19 08:24:34;;;;;;;3.55;2.63;;;19.50;39.80;18.50;101207.00;;;;5021824;28;20388;-64
2022/04/19 08:27:21;;;;;;;4.57;2.88;;;19.50;39.80;18.50;101207.00;;;;5036318;28;20099;-64
2022/04/19 08:30:08;;;;;;;2.72;2.10;;;19.60;39.90;18.50;101202.00;;;;5045011;28;20044;-64
2022/04/19 08:32:54;;;;;;;3.45;2.63;;;19.50;39.90;18.50;101197.00;;;;5043405;28;20462;-64
2022/04/19 08:35:40;;;;;;;4.07;2.78;;;19.60;39.90;18.50;101196.00;;;;5041306;28;20045;-64
2022/04/19 08:38:26;;;;;;;4.65;3.00;;;19.60;40.50;18.50;101196.00;;;;5035742;28;20043;-64
2022/04/19 08:41:15;;;;;;;4.68;2.97;;;19.50;39.80;18.50;101198.00;;;;5041477;28;20036;-64
2022/04/19 08:44:01;;;;;;;3.60;2.35;;;19.60;39.90;18.50;101193.00;;;;5025841;28;20071;-64
2022/04/19 08:46:47;;;;;;;4.35;2.85;;;19.60;39.90;18.50;101199.00;;;;5010586;28;20045;-64
2022/04/19 08:49:40;;;;;;;4.68;2.58;;;19.50;39.90;18.50;101195.00;;;;5050229;28;20044;-64
2022/04/19 08:52:26;;;;;;;3.05;2.65;;;19.60;40.00;18.50;101191.00;;;;5005206;28;20540;-64
2022/04/19 08:58:17;;;;;;;2.95;2.28;;;19.60;40.00;18.50;101199.00;;;;5027159;28;20055;-64
2022/04/19 09:01:03;;;;;;;3.30;2.45;;;19.50;39.90;18.50;101189.00;;;;5033548;28;20309;-64
2022/04/19 09:03:50;;;;;;;3.85;2.55;;;19.50;39.90;18.50;101195.00;;;;5024338;28;20052;-64
2022/04/19 09:06:56;;;;;;;4.30;2.57;;;19.60;40.00;18.50;101192.00;;;;5031150;28;20041;-64
2022/04/19 09:09:42;;;;;;;3.55;2.58;;;19.60;40.00;18.50;101185.00;;;;5010166;28;20311;-64
2022/04/19 09:12:28;;;;;;;2.50;2.15;;;19.60;40.00;18.50;101188.00;;;;5003877;28;20461;-64
2022/04/19 09:15:14;;;;;;;2.78;2.28;;;19.60;40.00;18.50;101187.00;;;;5040885;28;20687;-64
2022/04/19 09:18:00;;;;;;;3.72;2.10;;;19.60;40.10;18.60;101195.00;;;;5042050;28;20038;-64
2022/04/19 09:20:50;;;;;;;2.80;2.03;;;19.60;40.10;18.60;101191.00;;;;5044199;28;20424;-64
2022/04/19 09:23:36;;;;;;;4.47;2.50;;;19.60;40.10;18.60;101188.00;;;;5008607;28;20394;-64
2022/04/19 09:26:22;;;;;;;4.35;2.10;;;19.60;40.10;18.60;101186.00;;;;5041169;28;20041;-64
2022/04/19 09:29:25;;;;;;;3.00;1.83;;;19.60;40.10;18.60;101190.00;;;;5015229;28;20410;-64
2022/04/19 09:32:14;;;;;;;2.13;1.65;;;19.60;40.00;18.60;101186.00;;;;5024796;28;20048;-64
2022/04/19 09:35:00;;;;;;;2.30;1.77;;;19.60;40.00;18.60;101200.00;;;;5041635;28;20045;-64
2022/04/19 09:37:49;;;;;;;3.10;1.73;;;19.60;39.90;18.60;101191.00;;;;5032676;28;20055;-64
2022/04/19 09:40:48;;;;;;;2.40;1.60;;;19.60;40.00;18.60;101196.00;;;;5042315;28;20382;-64
2022/04/19 09:43:34;;;;;;;1.88;1.50;;;19.60;40.00;18.60;101180.00;;;;5018341;28;20495;-64
2022/04/19 09:46:21;;;;;;;2.47;1.60;;;19.70;40.10;18.60;101186.00;;;;5029009;28;20063;-64
2022/04/19 09:49:07;;;;;;;2.08;1.58;;;19.70;40.10;18.60;101183.00;;;;5044971;28;20139;-64
2022/04/19 09:51:53;;;;;;;1.67;1.55;;;19.50;40.60;18.60;101182.00;;;;5028139;28;20100;-64
2022/04/19 09:54:40;;;;;;;3.45;1.65;;;19.60;40.00;18.60;101184.00;;;;5030967;28;20045;-64
2022/04/19 09:57:26;;;;;;;1.80;1.55;;;19.60;40.00;18.60;101183.00;;;;5039417;28;20120;-64
2022/04/19 10:00:17;;;;;;;2.55;1.50;;;19.60;40.00;18.60;101186.00;;;;5027459;28;20475;-64
2022/04/19 10:09:00;;;;;;;1.42;1.13;;;19.60;40.00;18.60;101174.00;;;;5042386;28;20045;-64
2022/04/19 10:11:46;;;;;;;2.05;1.10;;;19.70;40.00;18.60;101175.00;;;;5003542;28;20131;-64
2022/04/19 10:14:32;;;;;;;0.90;0.90;;;19.70;40.00;18.60;101178.00;;;;5043881;28;20041;-64
2022/04/19 10:17:18;;;;;;;0.88;0.88;;;19.60;40.00;18.60;101172.00;;;;5019945;28;20450;-64
2022/04/19 10:20:05;;;;;;;1.40;1.20;;;19.70;40.00;18.60;101185.00;;;;5021429;28;20050;-64
2022/04/19 10:22:51;;;;;;;2.17;1.08;;;19.70;40.00;18.60;101187.00;;;;5027740;28;20041;-64
2022/04/19 10:25:44;;;;;;;1.95;1.05;;;19.60;39.90;18.60;101180.00;;;;5018793;28;20038;-64
2022/04/19 10:28:30;;;;;;;2.05;1.30;;;19.70;39.80;18.60;101178.00;;;;5019002;28;20501;-64
2022/04/19 10:31:54;;;;;;;1.30;1.10;;;19.70;39.80;18.60;101183.00;;;;5021938;28;20606;-64
2022/04/19 10:34:40;;;;;;;2.90;1.10;;;19.70;39.70;18.60;101177.00;;;;5019177;28;20037;-64
2022/04/19 10:37:27;;;;;;;1.77;0.95;;;19.70;39.70;18.60;101171.00;;;;5007731;28;20049;-64
2022/04/19 10:40:14;;;;;;;3.03;1.30;;;19.70;39.70;18.60;101172.00;;;;5019570;28;20449;-64
2022/04/19 10:43:13;;;;;;;1.50;1.10;;;19.70;39.60;18.60;101171.00;;;;5021349;28;20144;-64
2022/04/19 10:46:21;;;;;;;1.33;1.05;;;19.70;39.50;18.60;101168.00;;;;5033384;28;20293;-64
2022/04/19 10:49:23;;;;;;;1.75;0.88;;;19.70;39.50;18.60;101170.00;;;;5031148;28;20476;-64
2022/04/19 10:52:50;;;;;;;1.67;1.17;;;19.60;39.50;18.60;101162.00;;;;5026043;28;20474;-64
2022/04/19 10:55:58;;;;;;;0.90;0.70;;;19.80;39.50;18.60;101164.00;;;;5039566;28;20116;-64
2022/04/19 10:58:45;;;;;;;3.83;1.00;;;19.70;39.50;18.60;101164.00;;;;5024117;28;20041;-64
2022/04/19 11:01:31;;;;;;;1.23;0.90;;;19.70;39.40;18.70;101164.00;;;;5045471;28;20127;-64
2022/04/19 11:04:35;;;;;;;0.70;0.70;;;19.70;39.30;18.70;101162.00;;;;5019831;28;20052;-64
2022/04/19 11:07:42;;;;;;;1.63;0.80;;;19.70;39.30;18.60;101162.00;;;;5034776;28;20164;-64
2022/04/19 11:10:38;;;;;;;2.50;0.85;;;19.80;39.50;18.60;101159.00;;;;5012205;28;20049;-64
2022/04/19 11:13:28;;;;;;;2.03;0.88;;;19.90;39.50;18.70;101161.00;;;;5013315;28;20345;-64
2022/04/19 11:16:14;;;;;;;0.55;0.50;;;19.80;39.30;18.70;101156.00;;;;5038305;28;20120;-64
2022/04/19 11:19:16;;;;;;;1.00;0.65;;;19.70;39.20;18.70;101158.00;;;;5040239;28;20048;-64
2022/04/19 11:22:02;;;;;;;1.98;0.65;;;19.80;39.30;18.70;101158.00;;;;5026051;28;20037;-64
2022/04/19 11:25:34;;;;;;;1.42;0.60;;;19.80;39.20;18.70;101146.00;;;;5017487;28;20052;-64
2022/04/19 11:28:25;;;;;;;0.93;0.50;;;19.80;39.20;18.70;101145.00;;;;5029685;28;20183;-64
2022/04/19 11:31:11;;;;;;;0.50;0.50;;;19.90;39.10;18.70;101148.00;;;;5020570;28;20409;-64
2022/04/19 11:33:59;;;;;;;0.40;0.40;;;19.80;39.00;18.70;101149.00;;;;5022602;28;20041;-64
2022/04/19 11:36:45;;;;;;;0.80;0.50;;;19.80;39.00;18.70;101151.00;;;;5005504;28;20045;-64
2022/04/19 11:48:50;;;;;;;2.00;0.70;;;19.90;38.80;18.70;101147.00;;;;5029300;28;20041;-64
2022/04/19 11:51:37;;;;;;;0.30;0.30;;;19.90;38.80;18.70;101137.00;;;;5023574;28;20064;-64
2022/04/19 11:54:29;;;;;;;0.80;0.50;;;20.00;38.80;18.80;101146.00;;;;5036745;28;20360;-64
2022/04/19 11:57:16;;;;;;;0.40;0.40;;;19.90;38.70;18.80;101136.00;;;;5030071;28;20111;-64
2022/04/19 12:00:04;;;;;;;0.32;0.28;;;19.90;38.70;18.80;101140.00;;;;5028676;28;20084;-64
2022/04/19 12:02:52;;;;;;;0.40;0.35;;;19.90;39.30;18.80;101136.00;;;;5030799;28;20029;-64
2022/04/19 12:05:38;;;;;;;2.63;0.30;;;19.90;38.50;18.80;101130.00;;;;5048672;28;20120;-64
2022/04/19 12:08:49;;;;;;;1.27;0.30;;;19.90;38.40;18.80;101128.00;;;;5048255;28;20107;-64
2022/04/19 12:11:53;;;;;;;0.70;0.40;;;19.90;38.30;18.80;101128.00;;;;5033136;28;20041;-64
2022/04/19 12:14:39;;;;;;;0.45;0.38;;;19.90;38.30;18.80;101122.00;;;;5032062;28;20486;-64
2022/04/19 12:17:25;;;;;;;0.98;0.40;;;19.90;38.20;18.80;101130.00;;;;5041932;28;20046;-64
2022/04/19 12:20:11;;;;;;;0.50;0.40;;;19.90;38.20;18.80;101119.00;;;;5044217;28;20052;-65
2022/04/19 12:22:58;;;;;;;1.75;0.45;;;20.00;38.20;18.80;101118.00;;;;5043776;28;20045;-64
2022/04/19 12:26:00;;;;;;;0.50;0.22;;;20.00;38.20;18.80;101114.00;;;;5047104;28;20045;-64
2022/04/19 12:28:47;;;;;;;0.70;0.25;;;19.90;37.90;18.80;101122.00;;;;5026769;28;20071;-64
2022/04/19 12:31:40;;;;;;;0.63;0.38;;;20.00;38.00;18.80;101119.00;;;;5025865;28;20041;-64
2022/04/19 12:34:39;;;;;;;0.63;0.25;;;19.90;37.90;18.80;101115.00;;;;5036083;28;20037;-64
2022/04/19 12:37:25;;;;;;;1.63;0.40;;;20.00;37.80;18.80;101122.00;;;;5035024;28;20060;-64
2022/04/19 12:40:11;;;;;;;0.55;0.30;;;20.00;37.70;18.80;101120.00;;;;5045554;28;20135;-64
2022/04/19 12:42:57;;;;;;;0.52;0.30;;;20.10;37.70;18.80;101112.00;;;;5037961;28;20187;-64
2022/04/19 12:45:45;;;;;;;0.30;0.30;;;20.00;37.60;18.90;101114.00;;;;5024568;28;20037;-64
2022/04/19 12:48:31;;;;;;;0.30;0.30;;;20.00;37.60;18.90;101109.00;;;;5045040;28;20490;-64
2022/04/19 12:51:23;;;;;;;0.45;0.40;;;20.10;38.40;18.90;101108.00;;;;5040307;28;20482;-64
2022/04/19 12:54:09;;;;;;;0.20;0.20;;;20.10;37.40;18.90;101105.00;;;;5043966;28;20399;-64
2022/04/19 12:57:03;;;;;;;1.30;0.52;;;20.00;37.30;18.90;101102.00;;;;5034929;28;20043;-65
2022/04/19 12:59:50;;;;;;;0.60;0.43;;;20.10;37.30;18.90;101099.00;;;;5009920;28;20482;-64